createdAt,value
2018-11-07T15:27:12.262Z,46.8
2018-11-07T15:29:50.987Z,46.3
2018-11-07T15:39:54.518Z,46.3
2018-11-07T15:49:58.010Z,46.2
2018-11-07T16:00:01.811Z,45.6
2018-11-07T16:10:06.058Z,45.1
2018-11-07T16:20:09.896Z,44.7
2018-11-07T16:30:13.392Z,44.4
2018-11-07T16:40:16.899Z,44.4
2018-11-07T16:50:20.433Z,45
2018-11-07T17:00:23.975Z,45.5
2018-11-07T17:10:27.488Z,45.5
2018-11-07T17:20:31.081Z,45.8
2018-11-07T17:30:34.758Z,45.3
2018-11-07T17:40:38.269Z,45.4
2018-11-07T17:50:41.760Z,46.1
2018-11-07T18:00:45.326Z,46.4
2018-11-07T18:10:48.823Z,46.2
2018-11-07T18:20:52.333Z,46.2
2018-11-07T18:30:55.858Z,48.8
2018-11-07T18:40:59.491Z,50.6
2018-11-07T18:51:03.020Z,49.9
2018-11-07T19:01:06.657Z,49.2
2018-11-07T19:11:10.193Z,48.8
2018-11-07T19:21:13.707Z,47.9
2018-11-07T19:31:17.232Z,47.6
2018-11-07T19:41:20.777Z,47.6
2018-11-07T19:51:24.304Z,47.4
2018-11-07T20:01:27.838Z,47.2
2018-11-07T20:11:31.372Z,47
2018-11-07T20:21:34.929Z,46.8
2018-11-07T20:31:38.453Z,46.6
2018-11-07T20:41:42.212Z,46.7
2018-11-07T20:51:45.984Z,46.6
2018-11-07T21:01:49.633Z,46.6
2018-11-07T21:11:53.399Z,46.7
2018-11-07T21:21:56.917Z,46.7
2018-11-07T21:32:00.454Z,46.8
2018-11-07T21:42:03.998Z,46.8
2018-11-07T21:52:07.513Z,46.8
2018-11-07T22:02:10.980Z,46.9
2018-11-07T22:12:15.335Z,47
2018-11-07T22:22:18.686Z,47
2018-11-07T22:32:22.110Z,47.1
2018-11-07T22:42:25.651Z,47.2
2018-11-07T22:52:29.166Z,47.1
2018-11-07T23:02:32.695Z,47.2
2018-11-07T23:12:36.265Z,47.4
2018-11-07T23:22:39.811Z,47.5
2018-11-07T23:32:43.328Z,47.6
2018-11-07T23:42:46.845Z,47.7
2018-11-07T23:52:50.352Z,47.8
